• Join FlightAware (Why Join?)
  • Login
  • US Flag 
04:11PM EDT


 

Airport Tracker/Info


-or-


 

Live Flight TrackerFlight Track Log ✈ ASQ4209 ✈ 28-May-2013 ✈ KEWR - CYHZ

Flight Track Log - Related Links

Times and Time Zones

All times are in EDT time to prevent confusion due to time zone crossing. See the ASQ4209 flight status page for this flight to view local times or setup timezone preferences in your user account.

Time Position Orientation Groundspeed Altitude Reporting Facility
EDT Latitude Longitude Course Direction KTS MPH feet Rate Location/Type
08:54PM 41.0403 -73.6361 56° Northeast  Level FlightAware Approximate
08:55PM 41.1102 -73.5224 46° Northeast  Level FlightAware Approximate
08:56PM 41.1822 -73.4103 53° Northeast  Level FlightAware Approximate
08:57PM 41.2599 -73.3068 37° Northeast  Level FlightAware Approximate
08:58PM 41.3317 -73.1946 53° Northeast  Level FlightAware Approximate
08:59PM 41.3963 -73.0742 56° Northeast  Level FlightAware Approximate
09:00PM 41.4567 -72.9500 62° Northeast  Level FlightAware Approximate
09:01PM 41.5090 -72.8193 62° Northeast  Level FlightAware Approximate
09:02PM 41.5634 -72.6900 56° Northeast  Level FlightAware Approximate
09:03PM 41.6228 -72.5649 66° East  Level FlightAware Approximate
09:04PM 41.6758 -72.4344 60° Northeast  Level FlightAware Approximate
09:05PM 41.7310 -72.3054 60° Northeast  Level FlightAware Approximate
09:06PM 41.7926 -72.1815 56° Northeast  Level FlightAware Approximate
09:07PM 41.8501 -72.0540 59° Northeast  Level FlightAware Approximate
09:08PM 41.9077 -71.9265 59° Northeast  Level FlightAware Approximate
09:09PM 41.9780 -71.8193 20° North  Level FlightAware Approximate
09:10PM 42.0713 -71.7386 33° Northeast  Level FlightAware Approximate
09:11PM 42.1648 -71.6579 31° Northeast  Level FlightAware Approximate
09:12PM 42.2601 -71.5807 31° Northeast  Level FlightAware Approximate
09:13PM 42.3552 -71.5033 31° Northeast  Level FlightAware Approximate
09:14PM 42.4504 -71.4257 31° Northeast  Level FlightAware Approximate
09:15PM 42.5454 -71.3478 31° Northeast  Level FlightAware Approximate
09:16PM 42.6393 -71.2672 33° Northeast  Level FlightAware Approximate
09:17PM 42.7323 -71.1846 33° Northeast  Level FlightAware Approximate
09:18PM 42.8253 -71.1019 33° Northeast  Level FlightAware Approximate
09:19PM 42.9189 -71.0203 31° Northeast  Level FlightAware Approximate
09:20PM 43.0135 -70.9410 31° Northeast  Level FlightAware Approximate
09:21PM 43.1082 -70.8614 32° Northeast  Level FlightAware Approximate
09:22PM 43.2028 -70.7816 32° Northeast  Level FlightAware Approximate
09:23PM 43.2973 -70.7016 32° Northeast  Level FlightAware Approximate
09:24PM 43.3917 -70.6212 32° Northeast  Level FlightAware Approximate
09:25PM 43.4786 -70.5266 41° Northeast  Level FlightAware Approximate
09:26PM 43.5627 -70.4265 41° Northeast  Level FlightAware Approximate
09:27PM 43.6468 -70.3262 41° Northeast  Level FlightAware Approximate
09:28PM 43.7307 -70.2256 41° Northeast  Level FlightAware Approximate
09:29PM 43.8145 -70.1247 41° Northeast  Level FlightAware Approximate
09:30PM 43.8983 -70.0236 41° Northeast  Level FlightAware Approximate
09:31PM 43.9819 -69.9221 41° Northeast  Level FlightAware Approximate
09:32PM 44.0655 -69.8204 41° Northeast  Level FlightAware Approximate
09:33PM 44.1490 -69.7184 41° Northeast  Level FlightAware Approximate
09:34PM 44.2324 -69.6161 41° Northeast  Level FlightAware Approximate
09:35PM 44.3157 -69.5135 41° Northeast  Level FlightAware Approximate
09:36PM 44.3989 -69.4106 41° Northeast  Level FlightAware Approximate
09:37PM 44.4820 -69.3074 42° Northeast  Level FlightAware Approximate
09:38PM 44.5650 -69.2039 42° Northeast  Level FlightAware Approximate
09:39PM 44.6479 -69.1002 42° Northeast  Level FlightAware Approximate
09:40PM 44.7308 -68.9961 42° Northeast  Level FlightAware Approximate
09:41PM 44.8135 -68.8917 42° Northeast  Level FlightAware Approximate
09:42PM 44.8376 -68.7478 87° East  Level FlightAware Approximate
09:43PM 44.8430 -68.5914 87° East  Level FlightAware Approximate
09:44PM 44.8482 -68.4349 87° East  Level FlightAware Approximate
09:45PM 44.8531 -68.2784 87° East  Level FlightAware Approximate
09:46PM 44.8579 -68.1219 87° East  Level FlightAware Approximate
09:47PM 44.8624 -67.9653 88° East  Level FlightAware Approximate
09:48PM 44.8668 -67.8087 88° East  Level FlightAware Approximate
09:49PM 44.8709 -67.6521 88° East  Level FlightAware Approximate
09:50PM 44.8748 -67.4955 88° East  Level FlightAware Approximate
09:51PM 44.8785 -67.3389 88° East  Level FlightAware Approximate
09:52PM 44.8819 -67.1822 88° East  Level FlightAware Approximate
09:53PM 44.8833 -67.0255 90° East  Level FlightAware Approximate
09:54PM 44.8894 -66.8690 86° East  Level FlightAware Approximate
09:55PM 44.8965 -66.7126 86° East  Level FlightAware Approximate
09:56PM 44.9000 -66.5559 90° East  Level FlightAware Approximate
09:57PM 44.9002 -66.3991 90° East  Level FlightAware Approximate
09:58PM 44.9002 -66.2423 90° East  Level FlightAware Approximate
09:59PM 44.9000 -66.0856 90° East  Level FlightAware Approximate
10:00PM 44.9167 -65.9311 90° East  Level FlightAware Approximate
10:01PM 44.9168 -65.7742 90° East  Level FlightAware Approximate
10:02PM 44.9167 -65.6174 90° East  Level FlightAware Approximate
10:03PM 44.9168 -65.4606 90° East  Level FlightAware Approximate
10:04PM 44.9169 -65.3037 90° East  Level FlightAware Approximate
10:05PM 44.9168 -65.1469 90° East  Level FlightAware Approximate
10:06PM 44.9168 -64.9901 90° East  Level FlightAware Approximate
10:07PM 44.9170 -64.8332 90° East  Level FlightAware Approximate
10:08PM 44.9170 -64.6764 90° East  Level FlightAware Approximate
10:09PM 44.9168 -64.5195 90° East  Level FlightAware Approximate
10:10PM 44.9167 -64.3627 90° East  Level FlightAware Approximate
10:11PM 44.9167 -64.2059 90° East  Level FlightAware Approximate
10:12PM 44.9168 -64.0490 90° East  Level FlightAware Approximate
10:13PM 44.9167 -63.8922 90° East  Level FlightAware Approximate
10:14PM 44.9167 -63.7354 90° East  Level FlightAware Approximate